createdAt,value
2022-10-21T00:00:43.362Z,98553.00
2022-10-21T00:03:30.462Z,98557.31
2022-10-21T00:05:58.098Z,98561.44
2022-10-21T00:08:25.768Z,98554.38
2022-10-21T00:10:56.185Z,98552.69
2022-10-21T00:13:24.260Z,98557.03
2022-10-21T00:16:00.025Z,98546.06
2022-10-21T00:18:28.336Z,98537.59
2022-10-21T00:20:55.962Z,98542.41
2022-10-21T00:23:23.386Z,98550.97
2022-10-21T00:25:50.937Z,98553.41
2022-10-21T00:28:18.064Z,98562.75
2022-10-21T00:30:46.721Z,98562.63
2022-10-21T00:33:15.290Z,98565.97
2022-10-21T00:35:42.637Z,98559.94
2022-10-21T00:38:10.311Z,98551.31
2022-10-21T00:40:37.665Z,98558.34
2022-10-21T00:43:04.818Z,98553.31
2022-10-21T00:45:32.328Z,98549.06
2022-10-21T00:48:09.793Z,98546.53
2022-10-21T00:50:47.192Z,98550.06
2022-10-21T00:53:17.150Z,98539.81
2022-10-21T00:55:55.084Z,98548.59
2022-10-21T00:58:28.857Z,98537.16
2022-10-21T01:00:59.684Z,98536.66
2022-10-21T01:03:29.880Z,98522.06
2022-10-21T01:06:01.582Z,98521.41
2022-10-21T01:08:29.903Z,98530.19
2022-10-21T01:10:58.940Z,98524.22
2022-10-21T01:13:47.280Z,98520.00
2022-10-21T01:16:36.487Z,98519.22
2022-10-21T01:19:19.038Z,98507.44
2022-10-21T01:22:19.409Z,98499.84
2022-10-21T01:25:27.223Z,98499.84
2022-10-21T01:28:31.888Z,98492.38
2022-10-21T01:31:03.014Z,98491.34
2022-10-21T01:34:14.821Z,98487.31
2022-10-21T01:36:57.043Z,98476.97
2022-10-21T01:39:39.383Z,98477.88
2022-10-21T01:42:46.062Z,98484.72
2022-10-21T01:45:37.534Z,98474.50
2022-10-21T01:48:24.626Z,98483.97
2022-10-21T01:51:04.828Z,98480.47
2022-10-21T01:53:48.724Z,98488.38
2022-10-21T01:56:17.708Z,98483.88
2022-10-21T01:58:48.166Z,98486.53
2022-10-21T02:01:18.926Z,98485.63
2022-10-21T02:03:53.314Z,98490.88
2022-10-21T02:06:20.997Z,98483.63
2022-10-21T02:08:48.387Z,98475.34
2022-10-21T02:11:18.692Z,98471.22
2022-10-21T02:13:54.343Z,98463.44
2022-10-21T02:16:28.418Z,98464.34
2022-10-21T02:18:57.399Z,98463.69
2022-10-21T02:21:29.197Z,98462.69
2022-10-21T02:24:35.447Z,98461.84
2022-10-21T02:27:03.056Z,98463.66
2022-10-21T02:29:38.310Z,98457.44
2022-10-21T02:32:48.421Z,98467.88
2022-10-21T02:35:38.491Z,98470.59
2022-10-21T02:38:28.677Z,98459.97
2022-10-21T02:41:06.318Z,98458.28
2022-10-21T02:43:57.871Z,98449.63
2022-10-21T02:46:26.646Z,98445.25
2022-10-21T02:48:54.031Z,98452.34
2022-10-21T02:51:21.259Z,98438.56
2022-10-21T02:53:48.678Z,98443.88
2022-10-21T02:56:15.899Z,98434.38
2022-10-21T02:58:43.340Z,98442.91
2022-10-21T03:01:10.569Z,98452.16
2022-10-21T03:03:37.951Z,98433.25
2022-10-21T03:06:05.262Z,98425.56
2022-10-21T03:08:32.684Z,98421.09
2022-10-21T03:11:00.220Z,98427.31
2022-10-21T03:13:27.691Z,98429.25
2022-10-21T03:15:54.974Z,98423.41
2022-10-21T03:18:22.363Z,98418.25
2022-10-21T03:20:51.398Z,98411.38
2022-10-21T03:23:20.122Z,98415.66
2022-10-21T03:25:50.740Z,98416.78
2022-10-21T03:28:18.121Z,98417.63
2022-10-21T03:30:45.307Z,98414.13
2022-10-21T03:33:12.677Z,98419.31
2022-10-21T03:35:39.835Z,98413.97
2022-10-21T03:38:07.398Z,98414.88
2022-10-21T03:40:34.601Z,98416.72
2022-10-21T03:43:01.942Z,98404.69
2022-10-21T03:45:29.144Z,98404.78
2022-10-21T03:47:56.602Z,98395.19
2022-10-21T03:50:26.605Z,98403.94
2022-10-21T03:52:55.849Z,98399.66
2022-10-21T03:55:25.279Z,98396.31
2022-10-21T03:57:54.021Z,98401.41
2022-10-21T04:00:21.558Z,98397.97
2022-10-21T04:02:49.218Z,98402.56
2022-10-21T04:05:17.222Z,98395.88
2022-10-21T04:07:48.152Z,98388.19
2022-10-21T04:10:19.355Z,98387.28
2022-10-21T04:12:46.687Z,98397.59
2022-10-21T04:15:14.270Z,98397.75
2022-10-21T04:17:44.997Z,98393.66
2022-10-21T04:20:12.746Z,98402.25
2022-10-21T04:22:40.558Z,98405.03
2022-10-21T04:25:08.328Z,98390.38
2022-10-21T04:27:35.683Z,98395.38
2022-10-21T04:30:02.996Z,98390.84
2022-10-21T04:32:30.515Z,98384.66
2022-10-21T04:34:57.698Z,98380.25
2022-10-21T04:37:25.093Z,98380.41
2022-10-21T04:39:52.252Z,98382.00
2022-10-21T04:42:19.750Z,98390.69
2022-10-21T04:44:47.140Z,98373.50
2022-10-21T04:47:15.144Z,98380.94
2022-10-21T04:49:42.410Z,98385.41
2022-10-21T04:52:09.800Z,98379.50
2022-10-21T04:54:36.944Z,98380.34
2022-10-21T04:57:04.464Z,98379.50
2022-10-21T04:59:32.567Z,98380.50
2022-10-21T05:04:33.591Z,98373.44
2022-10-21T05:07:00.889Z,98372.72
2022-10-21T05:09:28.136Z,98373.81
2022-10-21T05:11:55.521Z,98366.72
2022-10-21T05:14:23.000Z,98378.03
2022-10-21T05:16:50.508Z,98372.66
2022-10-21T05:19:17.699Z,98374.22
2022-10-21T05:21:47.131Z,98363.28
2022-10-21T05:24:16.324Z,98364.66
2022-10-21T05:26:43.765Z,98375.66
2022-10-21T05:29:10.964Z,98378.06
2022-10-21T05:31:38.355Z,98360.31
2022-10-21T05:34:05.480Z,98343.50
2022-10-21T05:36:33.051Z,98349.19
2022-10-21T05:39:00.230Z,98385.19
2022-10-21T05:41:27.636Z,98405.63
2022-10-21T05:43:54.892Z,98381.44
2022-10-21T05:46:22.213Z,98375.53
2022-10-21T05:48:49.533Z,98399.47
2022-10-21T05:51:18.183Z,98383.47
2022-10-21T05:53:45.434Z,98372.94
2022-10-21T05:56:12.827Z,98387.16
2022-10-21T05:58:39.969Z,98391.50
2022-10-21T06:01:07.499Z,98388.44
2022-10-21T06:03:35.549Z,98383.06
2022-10-21T06:06:07.144Z,98388.13
2022-10-21T06:08:39.294Z,98390.50
2022-10-21T06:11:14.362Z,98391.72
2022-10-21T06:13:42.470Z,98386.88
2022-10-21T06:16:12.534Z,98377.91
2022-10-21T06:18:41.446Z,98385.38
2022-10-21T06:21:09.804Z,98382.28
2022-10-21T06:23:38.003Z,98382.34
2022-10-21T06:26:10.653Z,98392.03
2022-10-21T06:28:40.531Z,98403.56
2022-10-21T06:31:11.610Z,98394.97
2022-10-21T06:33:38.769Z,98402.41
2022-10-21T06:36:06.619Z,98397.00
2022-10-21T06:38:33.877Z,98400.81
2022-10-21T06:41:10.606Z,98404.94
2022-10-21T06:43:42.008Z,98394.59
2022-10-21T06:46:13.112Z,98393.16
2022-10-21T06:48:40.491Z,98397.16
2022-10-21T06:51:17.012Z,98385.28
2022-10-21T06:53:45.766Z,98377.94
2022-10-21T06:56:18.643Z,98372.63
2022-10-21T06:58:49.357Z,98366.50
2022-10-21T07:01:34.290Z,98368.00
2022-10-21T07:04:04.600Z,98366.09
2022-10-21T07:09:01.292Z,98362.97
2022-10-21T07:11:29.170Z,98360.69
2022-10-21T07:13:56.848Z,98352.00
2022-10-21T07:16:28.169Z,98353.66
2022-10-21T07:18:55.851Z,98350.13
2022-10-21T07:21:26.630Z,98344.84
2022-10-21T07:23:57.867Z,98335.59
2022-10-21T07:26:29.816Z,98330.72
2022-10-21T07:28:59.865Z,98327.09
2022-10-21T07:31:31.392Z,98335.56
2022-10-21T07:36:41.595Z,98328.28
2022-10-21T07:39:13.460Z,98315.88
2022-10-21T07:41:48.436Z,98316.28
2022-10-21T07:44:17.432Z,98315.88
2022-10-21T07:46:46.257Z,98316.91
2022-10-21T07:49:15.018Z,98306.25
2022-10-21T07:51:43.729Z,98303.69
2022-10-21T07:54:14.488Z,98304.03
2022-10-21T07:56:50.215Z,98300.72
2022-10-21T07:59:20.640Z,98306.91
2022-10-21T08:04:21.382Z,98279.69
2022-10-21T08:06:50.451Z,98283.47
2022-10-21T08:09:18.054Z,98269.41
2022-10-21T08:11:45.921Z,98265.91
2022-10-21T08:14:15.676Z,98262.66
2022-10-21T08:16:43.284Z,98257.09
2022-10-21T08:19:20.041Z,98258.91
2022-10-21T08:21:47.951Z,98264.81
2022-10-21T08:24:15.656Z,98253.53
2022-10-21T08:26:43.058Z,98248.84
2022-10-21T08:29:10.295Z,98234.03
2022-10-21T08:31:38.923Z,98242.13
2022-10-21T08:34:06.156Z,98233.69
2022-10-21T08:36:33.590Z,98234.31
2022-10-21T08:39:00.837Z,98228.03
2022-10-21T08:41:31.120Z,98222.44
2022-10-21T08:44:35.304Z,98231.16
2022-10-21T08:47:31.064Z,98223.13
2022-10-21T08:50:06.810Z,98211.81
2022-10-21T08:52:54.861Z,98210.44
2022-10-21T08:55:45.596Z,98207.34
2022-10-21T08:58:23.215Z,98199.66
2022-10-21T09:00:53.580Z,98206.41
2022-10-21T09:03:54.712Z,98205.25
2022-10-21T09:06:44.283Z,98207.16
2022-10-21T09:09:32.251Z,98213.78
2022-10-21T09:12:25.077Z,98205.97
2022-10-21T09:15:17.170Z,98205.66
2022-10-21T09:18:12.189Z,98206.09
2022-10-21T09:20:55.998Z,98201.94
2022-10-21T09:23:52.347Z,98198.25
2022-10-21T09:26:42.196Z,98191.56
2022-10-21T09:29:33.381Z,98191.34
2022-10-21T09:32:21.917Z,98185.81
2022-10-21T09:35:32.252Z,98180.66
2022-10-21T09:38:16.678Z,98180.72
2022-10-21T09:40:47.365Z,98173.72
2022-10-21T09:43:23.634Z,98170.44
2022-10-21T09:45:51.096Z,98164.31
2022-10-21T09:48:18.396Z,98157.28
2022-10-21T09:51:01.312Z,98153.00
2022-10-21T09:53:37.641Z,98157.75
2022-10-21T09:56:14.932Z,98159.34
2022-10-21T09:58:49.756Z,98156.91
2022-10-21T10:01:23.365Z,98154.66
2022-10-21T10:03:53.203Z,98146.72
2022-10-21T10:06:43.670Z,98144.44
2022-10-21T10:09:37.038Z,98136.88
2022-10-21T10:12:12.174Z,98146.94
2022-10-21T10:14:43.533Z,98148.63
2022-10-21T10:17:37.323Z,98146.84
2022-10-21T10:20:04.717Z,98157.34
2022-10-21T10:23:19.402Z,98153.69
2022-10-21T10:25:52.100Z,98151.34
2022-10-21T10:28:25.704Z,98153.38
2022-10-21T10:30:56.778Z,98139.56
2022-10-21T10:33:31.864Z,98141.84
2022-10-21T10:36:05.553Z,98144.13
2022-10-21T10:38:51.916Z,98132.78
2022-10-21T10:41:19.814Z,98130.09
2022-10-21T10:43:53.300Z,98143.41
2022-10-21T10:46:32.296Z,98131.00
2022-10-21T10:49:14.203Z,98141.59
2022-10-21T10:51:45.627Z,98133.03
2022-10-21T10:54:27.467Z,98129.63
2022-10-21T10:57:01.013Z,98129.16
2022-10-21T10:59:36.900Z,98116.25
2022-10-21T11:02:10.510Z,98112.34
2022-10-21T11:05:24.153Z,98109.19
2022-10-21T11:07:54.568Z,98106.88
2022-10-21T11:10:27.460Z,98104.25
2022-10-21T11:12:54.917Z,98099.34
2022-10-21T11:15:49.666Z,98097.94
2022-10-21T11:18:36.358Z,98089.03
2022-10-21T11:21:18.139Z,98088.59
2022-10-21T11:24:09.035Z,98080.06
2022-10-21T11:27:19.063Z,98073.38
2022-10-21T11:29:46.636Z,98075.03
2022-10-21T11:32:58.171Z,98066.34
2022-10-21T11:35:34.069Z,98059.75
2022-10-21T11:38:06.782Z,98055.47
2022-10-21T11:41:13.565Z,98046.72
2022-10-21T11:44:15.818Z,98031.59
2022-10-21T11:47:29.199Z,98035.53
2022-10-21T11:50:14.271Z,98037.97
2022-10-21T11:53:12.493Z,98024.88
2022-10-21T11:56:01.371Z,98023.75
2022-10-21T11:58:43.874Z,98022.16
2022-10-21T12:01:16.715Z,98019.31
2022-10-21T12:04:24.515Z,98011.69
2022-10-21T12:07:37.422Z,97998.91
2022-10-21T12:10:35.436Z,98011.78
2022-10-21T12:13:15.648Z,98025.59
2022-10-21T12:16:14.901Z,98022.47
2022-10-21T12:18:53.384Z,98003.59
2022-10-21T12:21:27.734Z,97986.19
2022-10-21T12:24:26.063Z,97973.94
2022-10-21T12:27:43.334Z,97968.78
2022-10-21T12:30:23.518Z,97982.25
2022-10-21T12:33:37.458Z,97979.34
2022-10-21T12:36:23.128Z,97988.22
2022-10-21T12:38:56.536Z,97988.81
2022-10-21T12:41:34.551Z,97989.41
2022-10-21T12:44:01.933Z,97985.00
2022-10-21T12:46:55.701Z,97975.25
2022-10-21T12:49:32.898Z,97980.19
2022-10-21T12:52:03.181Z,97981.59
2022-10-21T12:54:57.104Z,97984.16
2022-10-21T12:57:31.512Z,98001.28
2022-10-21T13:03:13.618Z,97967.84
2022-10-21T13:05:40.889Z,97959.28
2022-10-21T13:08:22.842Z,97956.06
2022-10-21T13:11:05.436Z,97967.91
2022-10-21T13:13:38.890Z,97966.31
2022-10-21T13:16:21.500Z,97959.91
2022-10-21T13:19:26.270Z,97959.44
2022-10-21T13:22:13.845Z,97973.78
2022-10-21T13:24:42.380Z,97972.56
2022-10-21T13:27:32.275Z,97976.31
2022-10-21T13:30:00.714Z,97976.44
2022-10-21T13:32:34.964Z,97979.63
2022-10-21T13:35:43.164Z,97980.31
2022-10-21T13:38:30.439Z,97967.75
2022-10-21T13:41:03.521Z,97967.06
2022-10-21T13:43:45.202Z,97965.31
2022-10-21T13:46:17.818Z,97974.72
2022-10-21T13:48:48.787Z,97984.63
2022-10-21T13:51:20.238Z,97974.50
2022-10-21T13:53:49.662Z,97967.78
2022-10-21T13:56:24.846Z,97962.44
2022-10-21T13:58:53.212Z,97974.69
2022-10-21T14:01:30.862Z,97978.50
2022-10-21T14:04:23.972Z,97982.59
2022-10-21T14:07:19.387Z,97975.47
2022-10-21T14:09:52.170Z,97978.81
2022-10-21T14:12:46.425Z,97990.38
2022-10-21T14:15:19.708Z,97992.91
2022-10-21T14:17:59.500Z,97986.66
2022-10-21T14:20:37.470Z,97991.50
2022-10-21T14:23:19.228Z,97984.56
2022-10-21T14:25:51.239Z,97986.00
2022-10-21T14:28:21.029Z,97997.50
2022-10-21T14:30:50.126Z,97989.31
2022-10-21T14:33:25.642Z,97983.91
2022-10-21T14:36:11.294Z,97981.69
2022-10-21T14:39:17.817Z,97989.03
2022-10-21T14:41:46.126Z,97990.44
2022-10-21T14:44:22.527Z,97996.28
2022-10-21T14:46:54.733Z,97994.72
2022-10-21T14:49:25.049Z,97990.69
2022-10-21T14:52:08.232Z,97989.88
2022-10-21T14:54:49.530Z,97999.56
2022-10-21T14:57:40.962Z,97999.94
2022-10-21T15:00:27.628Z,98008.34
2022-10-21T15:03:00.328Z,98007.13
2022-10-21T15:05:48.611Z,97999.47
2022-10-21T15:08:22.843Z,97998.75
2022-10-21T15:11:05.068Z,97994.47
2022-10-21T15:13:33.486Z,97997.78
2022-10-21T15:16:04.537Z,97990.88
2022-10-21T15:18:53.442Z,97988.78
2022-10-21T15:21:46.628Z,98001.91
2022-10-21T15:24:40.358Z,98005.09
2022-10-21T15:27:15.224Z,98006.06
2022-10-21T15:29:47.932Z,98005.50
2022-10-21T15:32:19.663Z,98004.53
2022-10-21T15:34:51.857Z,98013.78
2022-10-21T15:37:19.896Z,98011.03
2022-10-21T15:39:48.604Z,98020.97
2022-10-21T15:42:19.205Z,98016.09
2022-10-21T15:44:49.855Z,98025.09
2022-10-21T15:47:17.701Z,98024.47
2022-10-21T15:49:49.360Z,98023.69
2022-10-21T15:52:17.102Z,98022.53
2022-10-21T15:54:44.980Z,98024.34
2022-10-21T15:57:21.096Z,98027.38
2022-10-21T15:59:49.238Z,98035.88
2022-10-21T16:02:17.881Z,98038.81
2022-10-21T16:04:45.885Z,98024.72
2022-10-21T16:07:29.362Z,98030.50
2022-10-21T16:09:57.413Z,98025.44
2022-10-21T16:12:24.785Z,98040.69
2022-10-21T16:14:52.409Z,98026.97
2022-10-21T16:17:20.718Z,98022.31
2022-10-21T16:19:48.162Z,98022.25
2022-10-21T16:22:22.787Z,98024.16
2022-10-21T16:24:50.285Z,98020.38
2022-10-21T16:27:31.200Z,98022.53
2022-10-21T16:30:28.030Z,98035.84
2022-10-21T16:32:57.192Z,98028.69
2022-10-21T16:35:25.130Z,98039.69
2022-10-21T16:37:52.784Z,98028.75
2022-10-21T16:40:28.501Z,98026.50
2022-10-21T16:42:55.680Z,98040.47
2022-10-21T16:45:28.854Z,98032.38
2022-10-21T16:47:59.554Z,98041.78
2022-10-21T16:50:33.085Z,98048.94
2022-10-21T16:53:02.182Z,98046.19
2022-10-21T16:55:29.643Z,98044.66
2022-10-21T16:57:56.963Z,98052.66
2022-10-21T17:00:24.456Z,98053.00
2022-10-21T17:02:52.711Z,98060.06
2022-10-21T17:05:20.304Z,98054.31
2022-10-21T17:07:47.582Z,98063.16
2022-10-21T17:10:15.216Z,98053.75
2022-10-21T17:12:42.889Z,98060.66
2022-10-21T17:15:15.477Z,98055.06
2022-10-21T17:17:42.834Z,98055.59
2022-10-21T17:20:11.082Z,98046.88
2022-10-21T17:22:38.260Z,98061.78
2022-10-21T17:25:06.129Z,98062.97
2022-10-21T17:27:33.285Z,98056.75
2022-10-21T17:30:00.657Z,98060.72
2022-10-21T17:32:27.873Z,98052.97
2022-10-21T17:34:55.258Z,98052.47
2022-10-21T17:37:22.419Z,98049.41
2022-10-21T17:39:50.668Z,98046.53
2022-10-21T17:42:17.889Z,98037.44
2022-10-21T17:44:45.677Z,98044.25
2022-10-21T17:47:14.897Z,98044.63
2022-10-21T17:49:42.407Z,98045.34
2022-10-21T17:52:10.146Z,98033.91
2022-10-21T17:54:37.563Z,98030.44
2022-10-21T17:57:04.955Z,98023.75
2022-10-21T17:59:32.931Z,98021.25
2022-10-21T18:02:00.875Z,98017.59
2022-10-21T18:04:28.758Z,98013.06
2022-10-21T18:06:56.144Z,98005.41
2022-10-21T18:09:23.659Z,98000.56
2022-10-21T18:11:50.898Z,98003.19
2022-10-21T18:14:18.411Z,97995.78
2022-10-21T18:16:45.664Z,97996.97
2022-10-21T18:19:14.014Z,97995.88
2022-10-21T18:21:41.201Z,97998.41
2022-10-21T18:24:12.384Z,97985.19
2022-10-21T18:26:40.315Z,97992.31
2022-10-21T18:29:58.542Z,97978.63
2022-10-21T18:32:26.047Z,97964.94
2022-10-21T18:34:53.670Z,97972.91
2022-10-21T18:37:21.226Z,97971.63
2022-10-21T18:39:48.607Z,97969.84
2022-10-21T18:42:16.120Z,97970.09
2022-10-21T18:44:43.737Z,97964.84
2022-10-21T18:47:12.069Z,97958.88
2022-10-21T18:49:39.307Z,97966.16
2022-10-21T18:52:06.806Z,97958.06
2022-10-21T18:54:34.105Z,97947.59
2022-10-21T18:57:01.630Z,97955.47
2022-10-21T18:59:28.863Z,97949.41
2022-10-21T19:01:56.495Z,97950.38
2022-10-21T19:04:24.590Z,97954.41
2022-10-21T19:06:52.102Z,97950.47
2022-10-21T19:09:23.309Z,97950.59
2022-10-21T19:11:50.944Z,97951.66
2022-10-21T19:14:19.704Z,97947.25
2022-10-21T19:16:48.878Z,97955.72
2022-10-21T19:19:17.317Z,97961.78
2022-10-21T19:21:44.886Z,97958.44
2022-10-21T19:24:12.425Z,97947.75
2022-10-21T19:26:44.103Z,97947.28
2022-10-21T19:29:16.685Z,97948.69
2022-10-21T19:34:26.335Z,97940.25
2022-10-21T19:36:53.961Z,97942.13
2022-10-21T19:39:21.589Z,97928.97
2022-10-21T19:41:49.132Z,97935.03
2022-10-21T19:44:16.803Z,97935.50
2022-10-21T19:46:44.863Z,97936.66
2022-10-21T19:49:14.656Z,97943.69
2022-10-21T19:51:42.156Z,97936.44
2022-10-21T19:54:13.090Z,97958.22
2022-10-21T19:56:41.331Z,97960.94
2022-10-21T19:59:09.905Z,97964.03
2022-10-21T20:01:37.702Z,97959.03
2022-10-21T20:04:05.277Z,97966.41
2022-10-21T20:06:38.126Z,97958.69
2022-10-21T20:09:13.891Z,97968.56
2022-10-21T20:11:42.114Z,97950.94
2022-10-21T20:14:13.390Z,97958.78
2022-10-21T20:16:43.172Z,97948.34
2022-10-21T20:19:12.737Z,97940.84
2022-10-21T20:21:41.473Z,97948.91
2022-10-21T20:24:10.865Z,97956.31
2022-10-21T20:29:06.570Z,97965.31
2022-10-21T20:31:34.832Z,97958.78
2022-10-21T20:34:02.132Z,97962.44
2022-10-21T20:36:35.267Z,97966.59
2022-10-21T20:39:03.296Z,97967.53
2022-10-21T20:41:37.352Z,97968.91
2022-10-21T20:44:09.180Z,97988.41
2022-10-21T20:46:37.134Z,97986.13
2022-10-21T20:49:07.380Z,97983.28
2022-10-21T20:51:37.553Z,97979.22
2022-10-21T20:54:09.460Z,97985.28
2022-10-21T20:56:40.194Z,97978.63
2022-10-21T20:59:11.540Z,97971.19
2022-10-21T21:01:43.194Z,97962.72
2022-10-21T21:04:15.232Z,97959.97
2022-10-21T21:06:47.265Z,97971.63
2022-10-21T21:12:04.698Z,97967.59
2022-10-21T21:14:32.514Z,97953.44
2022-10-21T21:16:59.918Z,97941.06
2022-10-21T21:19:27.410Z,97935.13
2022-10-21T21:21:54.846Z,97941.19
2022-10-21T21:24:22.367Z,97943.38
2022-10-21T21:26:50.005Z,97930.75
2022-10-21T21:29:17.224Z,97935.41
2022-10-21T21:31:44.708Z,97924.56
2022-10-21T21:34:12.155Z,97913.06
2022-10-21T21:36:39.682Z,97924.44
2022-10-21T21:39:08.485Z,97929.69
2022-10-21T21:41:36.303Z,97924.81
2022-10-21T21:44:05.950Z,97911.63
2022-10-21T21:46:33.486Z,97910.66
2022-10-21T21:49:05.879Z,97933.13
2022-10-21T21:51:36.921Z,97939.06
2022-10-21T21:54:07.776Z,97936.78
2022-10-21T21:56:35.838Z,97938.34
2022-10-21T21:59:04.138Z,97947.38
2022-10-21T22:01:31.593Z,97936.78
2022-10-21T22:03:59.719Z,97938.06
2022-10-21T22:06:32.328Z,97934.41
2022-10-21T22:09:01.304Z,97936.41
2022-10-21T22:11:32.593Z,97933.09
2022-10-21T22:14:00.401Z,97920.72
2022-10-21T22:16:30.369Z,97935.81
2022-10-21T22:19:00.640Z,97930.72
2022-10-21T22:21:30.558Z,97915.34
2022-10-21T22:23:58.153Z,97910.75
2022-10-21T22:26:26.995Z,97920.13
2022-10-21T22:28:55.058Z,97915.03
2022-10-21T22:31:28.955Z,97913.84
2022-10-21T22:34:01.807Z,97920.03
2022-10-21T22:36:29.739Z,97927.25
2022-10-21T22:38:57.767Z,97908.00
2022-10-21T22:41:26.469Z,97897.19
2022-10-21T22:43:53.703Z,97893.63
2022-10-21T22:46:33.273Z,97896.03
2022-10-21T22:49:02.200Z,97899.59
2022-10-21T22:51:29.703Z,97912.44
2022-10-21T22:53:57.062Z,97898.41
2022-10-21T22:56:26.573Z,97899.34
2022-10-21T22:58:54.223Z,97898.53
2022-10-21T23:01:21.865Z,97905.88
2022-10-21T23:03:49.044Z,97902.44
2022-10-21T23:06:16.427Z,97896.75
2022-10-21T23:08:43.626Z,97897.81
2022-10-21T23:11:12.282Z,97899.09
2022-10-21T23:13:51.101Z,97905.53
2022-10-21T23:16:26.841Z,97899.56
2022-10-21T23:18:54.001Z,97896.94
2022-10-21T23:21:21.360Z,97899.78
2022-10-21T23:23:48.509Z,97901.69
2022-10-21T23:26:15.859Z,97910.13
2022-10-21T23:28:42.976Z,97891.00
2022-10-21T23:31:10.365Z,97909.09
2022-10-21T23:33:37.551Z,97897.19
2022-10-21T23:36:05.349Z,97895.28
2022-10-21T23:38:32.570Z,97898.75
2022-10-21T23:40:59.859Z,97898.03
2022-10-21T23:43:27.202Z,97912.56
2022-10-21T23:45:54.526Z,97890.31
2022-10-21T23:48:21.995Z,97886.88
2022-10-21T23:50:49.375Z,97884.88
2022-10-21T23:53:16.613Z,97882.72
2022-10-21T23:55:43.989Z,97878.31
2022-10-21T23:58:11.193Z,97896.13
